Time;durP1;ratioP1;P1;durP2;ratioP2;P2;SDS_P1;SDS_P2;PMS_P1;PMS_P2;Temp;Humidity;BMP_temperature;BMP_pressure;BME280_temperature;BME280_humidity;BME280_pressure;Samples;Min_cycle;Max_cycle;Signal;HPM_P1;HPM_P2
2023/11/23 00:02:23;;;;;;;;;;;;;;;3.51;100.00;100975.94;5029578;28;19925;-85
2023/11/23 00:04:56;;;;;;;;;;;;;;;3.54;100.00;100972.78;5031391;28;19934;-86
2023/11/23 00:07:24;;;;;;;;;;;;;;;3.50;100.00;100964.34;5027570;28;20382;-84
2023/11/23 00:09:57;;;;;;;;;;;;;;;3.55;100.00;100972.56;5022620;28;19925;-84
2023/11/23 00:12:31;;;;;;;;;;;;;;;3.56;100.00;100966.16;5026183;28;19948;-84
2023/11/23 00:15:00;;;;;;;;;;;;;;;3.58;100.00;100964.03;5032540;28;19929;-84
2023/11/23 00:17:29;;;;;;;;;;;;;;;3.57;100.00;100953.50;5026804;28;20301;-84
2023/11/23 00:19:58;;;;;;;;;;;;;;;3.59;100.00;100954.09;5029546;28;19925;-83
2023/11/23 00:22:26;;;;;;;;;;;;;;;3.64;100.00;100954.22;5031887;28;19925;-84
2023/11/23 00:24:55;;;;;;;;;;;;;;;3.67;100.00;100943.00;5045173;28;19953;-87
2023/11/23 00:27:28;;;;;;;;;;;;;;;3.65;100.00;100931.66;5023028;28;19930;-86
2023/11/23 00:29:56;;;;;;;;;;;;;;;3.73;100.00;100931.34;5033594;28;19925;-84
2023/11/23 00:32:25;;;;;;;;;;;;;;;3.77;100.00;100920.94;5029016;28;19933;-84
2023/11/23 00:34:54;;;;;;;;;;;;;;;3.75;100.00;100915.78;5035056;28;19924;-85
2023/11/23 00:37:28;;;;;;;;;;;;;;;3.81;100.00;100913.22;5029873;28;19925;-83
2023/11/23 00:40:01;;;;;;;;;;;;;;;3.79;100.00;100908.06;5023651;28;19933;-85
2023/11/23 00:42:29;;;;;;;;;;;;;;;3.82;100.00;100901.41;5030383;28;20560;-83
2023/11/23 00:44:57;;;;;;;;;;;;;;;3.92;100.00;100905.19;5023776;28;19928;-83
2023/11/23 00:47:26;;;;;;;;;;;;;;;3.91;100.00;100903.53;5030919;28;19926;-83
2023/11/23 00:49:59;;;;;;;;;;;;;;;3.95;100.00;100901.22;5031100;28;19925;-83
2023/11/23 00:52:27;;;;;;;;;;;;;;;3.99;100.00;100906.94;5028616;28;19958;-84
2023/11/23 00:54:57;;;;;;;;;;;;;;;4.04;100.00;100894.44;5026706;28;19932;-83
2023/11/23 00:57:30;;;;;;;;;;;;;;;4.07;100.00;100880.53;5030246;28;19936;-85
2023/11/23 00:59:59;;;;;;;;;;;;;;;4.19;100.00;100882.41;5026040;28;19933;-83
2023/11/23 01:02:33;;;;;;;;;;;;;;;4.18;100.00;100878.06;5029504;28;19925;-84
2023/11/23 01:05:06;;;;;;;;;;;;;;;4.23;100.00;100881.72;5033637;28;19944;-83
2023/11/23 01:07:39;;;;;;;;;;;;;;;4.26;100.00;100875.03;5029176;28;19932;-84
2023/11/23 01:10:13;;;;;;;;;;;;;;;4.29;100.00;100866.47;5026659;28;19936;-82
2023/11/23 01:12:41;;;;;;;;;;;;;;;4.35;100.00;100868.25;5027913;28;19933;-84
2023/11/23 01:15:11;;;;;;;;;;;;;;;4.40;100.00;100854.06;5028141;28;19952;-82
2023/11/23 01:17:41;;;;;;;;;;;;;;;4.43;100.00;100861.69;5028854;28;19933;-85
2023/11/23 01:20:09;;;;;;;;;;;;;;;4.45;100.00;100859.59;5028256;28;19933;-83
2023/11/23 01:22:37;;;;;;;;;;;;;;;4.51;100.00;100852.44;5026878;28;20404;-82
2023/11/23 01:25:10;;;;;;;;;;;;;;;4.52;100.00;100852.19;5036515;28;19925;-84
2023/11/23 01:27:38;;;;;;;;;;;;;;;4.56;100.00;100864.16;5026471;28;19932;-81
2023/11/23 01:30:11;;;;;;;;;;;;;;;4.62;100.00;100866.97;5025853;28;19937;-83
2023/11/23 01:32:45;;;;;;;;;;;;;;;4.57;100.00;100865.78;5028961;28;19925;-82
2023/11/23 01:35:14;;;;;;;;;;;;;;;4.58;100.00;100862.06;5022622;28;19925;-82
2023/11/23 01:37:47;;;;;;;;;;;;;;;4.65;100.00;100861.09;5029210;28;20646;-82
2023/11/23 01:40:20;;;;;;;;;;;;;;;4.68;100.00;100857.91;5027455;28;19926;-84
2023/11/23 01:42:52;;;;;;;;;;;;;;;4.74;100.00;100863.19;5025507;28;19944;-83
2023/11/23 01:45:25;;;;;;;;;;;;;;;4.71;100.00;100868.22;5030737;28;19932;-84
2023/11/23 01:48:00;;;;;;;;;;;;;;;4.78;100.00;100855.47;5025539;28;19937;-83
2023/11/23 01:50:29;;;;;;;;;;;;;;;4.78;100.00;100842.00;5025035;28;19925;-82
2023/11/23 01:52:57;;;;;;;;;;;;;;;4.82;100.00;100843.16;5028877;28;19929;-82
2023/11/23 01:55:26;;;;;;;;;;;;;;;4.89;100.00;100857.31;5024560;28;20289;-82
2023/11/23 01:57:54;;;;;;;;;;;;;;;4.98;100.00;100848.84;5045610;28;20275;-82
2023/11/23 02:00:27;;;;;;;;;;;;;;;5.02;100.00;100837.34;5031016;28;20480;-83
2023/11/23 02:03:02;;;;;;;;;;;;;;;5.03;100.00;100832.78;5033234;28;19929;-82
2023/11/23 02:05:35;;;;;;;;;;;;;;;5.06;100.00;100832.31;5026617;28;19926;-83
2023/11/23 02:08:08;;;;;;;;;;;;;;;5.11;100.00;100829.72;5034326;28;20497;-83
2023/11/23 02:10:36;;;;;;;;;;;;;;;5.19;100.00;100821.25;5024823;28;20389;-85
2023/11/23 02:13:09;;;;;;;;;;;;;;;5.22;100.00;100809.13;5028974;28;19933;-87
2023/11/23 02:15:42;;;;;;;;;;;;;;;5.28;100.00;100813.56;5028020;28;19932;-82
2023/11/23 02:18:11;;;;;;;;;;;;;;;5.28;100.00;100808.19;5029505;28;19933;-82
2023/11/23 02:20:43;;;;;;;;;;;;;;;5.33;100.00;100804.75;5043028;28;19932;-83
2023/11/23 02:23:11;;;;;;;;;;;;;;;5.35;100.00;100811.53;5034323;28;19925;-83
2023/11/23 02:25:45;;;;;;;;;;;;;;;5.40;100.00;100800.00;5023682;28;19936;-83
2023/11/23 02:28:18;;;;;;;;;;;;;;;5.47;100.00;100802.56;5031345;28;19925;-82
2023/11/23 02:30:51;;;;;;;;;;;;;;;5.45;100.00;100800.94;5024468;28;20302;-83
2023/11/23 02:33:19;;;;;;;;;;;;;;;5.54;100.00;100800.56;5028898;28;19932;-84
2023/11/23 02:35:47;;;;;;;;;;;;;;;5.58;100.00;100807.91;5034239;28;19929;-83
2023/11/23 02:38:21;;;;;;;;;;;;;;;5.66;100.00;100801.28;5047371;28;20313;-84
2023/11/23 02:40:57;;;;;;;;;;;;;;;5.65;100.00;100783.47;5034577;28;19937;-84
2023/11/23 02:43:26;;;;;;;;;;;;;;;5.70;100.00;100786.22;5028096;28;19933;-85
2023/11/23 02:45:55;;;;;;;;;;;;;;;5.75;100.00;100777.41;5032906;28;19929;-86
2023/11/23 02:48:29;;;;;;;;;;;;;;;5.79;100.00;100767.75;5034304;28;19933;-85
2023/11/23 02:50:57;;;;;;;;;;;;;;;5.75;100.00;100767.41;5032253;28;20409;-83
2023/11/23 02:53:31;;;;;;;;;;;;;;;5.80;100.00;100755.91;5030183;28;19925;-82
2023/11/23 02:56:01;;;;;;;;;;;;;;;5.80;100.00;100758.59;5032793;28;19925;-82
2023/11/23 02:58:29;;;;;;;;;;;;;;;5.83;100.00;100757.25;5021352;28;19932;-84
2023/11/23 03:01:02;;;;;;;;;;;;;;;5.86;100.00;100756.78;5029439;28;19926;-83
2023/11/23 03:03:35;;;;;;;;;;;;;;;5.86;100.00;100760.31;5027672;28;19936;-84
2023/11/23 03:06:08;;;;;;;;;;;;;;;5.92;100.00;100747.69;5026244;28;20028;-82
2023/11/23 03:08:41;;;;;;;;;;;;;;;5.93;100.00;100757.44;5032196;28;19925;-85
2023/11/23 03:11:19;;;;;;;;;;;;;;;5.98;100.00;100751.31;5022158;28;19932;-88
2023/11/23 03:13:53;;;;;;;;;;;;;;;5.99;100.00;100747.56;5023473;28;20390;-82
2023/11/23 03:16:21;;;;;;;;;;;;;;;6.00;100.00;100739.19;5033456;28;19925;-83
2023/11/23 03:18:49;;;;;;;;;;;;;;;6.06;100.00;100746.31;5026099;28;19932;-83
2023/11/23 03:21:23;;;;;;;;;;;;;;;6.02;100.00;100722.72;5031075;28;20531;-83
2023/11/23 03:23:51;;;;;;;;;;;;;;;6.00;100.00;100723.00;5029041;28;19932;-84
2023/11/23 03:26:20;;;;;;;;;;;;;;;6.04;100.00;100710.63;5032815;28;19925;-83
2023/11/23 03:28:53;;;;;;;;;;;;;;;6.10;100.00;100714.22;5032588;28;20741;-84
2023/11/23 03:31:26;;;;;;;;;;;;;;;6.23;100.00;100704.94;5031171;28;19932;-83
2023/11/23 03:33:59;;;;;;;;;;;;;;;6.23;100.00;100705.75;5017232;28;19930;-83
2023/11/23 03:36:27;;;;;;;;;;;;;;;6.32;100.00;100699.91;5044193;28;19932;-83
2023/11/23 03:38:57;;;;;;;;;;;;;;;6.39;100.00;100700.53;5032111;28;20015;-83
2023/11/23 03:41:32;;;;;;;;;;;;;;;6.42;100.00;100719.78;5027611;28;19925;-82
2023/11/23 03:44:05;;;;;;;;;;;;;;;6.43;100.00;100709.78;5027217;28;19929;-82
2023/11/23 03:46:33;;;;;;;;;;;;;;;6.43;100.00;100707.06;5027766;28;19941;-85
2023/11/23 03:49:00;;;;;;;;;;;;;;;6.44;100.00;100704.13;5032225;28;19933;-85
2023/11/23 03:51:28;;;;;;;;;;;;;;;6.48;100.00;100707.16;5033970;28;19933;-86
2023/11/23 03:54:02;;;;;;;;;;;;;;;6.52;100.00;100704.75;5028086;28;19932;-85
2023/11/23 03:56:32;;;;;;;;;;;;;;;6.52;100.00;100697.47;5024000;28;19932;-85
2023/11/23 03:59:00;;;;;;;;;;;;;;;6.56;100.00;100712.09;5030142;28;19925;-83
2023/11/23 04:01:28;;;;;;;;;;;;;;;6.58;100.00;100691.03;5029232;28;19932;-85
2023/11/23 04:03:56;;;;;;;;;;;;;;;6.61;100.00;100687.81;5039988;28;19952;-84
2023/11/23 04:06:29;;;;;;;;;;;;;;;6.69;100.00;100683.84;5027773;28;19940;-82
2023/11/23 04:08:57;;;;;;;;;;;;;;;6.76;100.00;100675.53;5041446;28;19925;-82
2023/11/23 04:11:25;;;;;;;;;;;;;;;6.74;100.00;100662.28;5032127;28;19929;-83
2023/11/23 04:13:54;;;;;;;;;;;;;;;6.74;100.00;100645.22;5027633;28;19932;-81
2023/11/23 04:16:22;;;;;;;;;;;;;;;6.75;100.00;100652.25;5024567;28;20404;-83
2023/11/23 04:18:55;;;;;;;;;;;;;;;6.73;100.00;100662.53;5040070;28;19930;-84
2023/11/23 04:21:28;;;;;;;;;;;;;;;6.73;100.00;100641.72;5027899;28;19935;-83
2023/11/23 04:23:56;;;;;;;;;;;;;;;6.77;100.00;100634.72;5028818;28;19932;-83
2023/11/23 04:26:29;;;;;;;;;;;;;;;6.76;100.00;100645.78;5030661;28;20400;-83
2023/11/23 04:29:04;;;;;;;;;;;;;;;6.74;100.00;100648.75;5028956;28;20054;-83
2023/11/23 04:31:37;;;;;;;;;;;;;;;6.80;100.00;100641.50;5021896;28;19932;-83
2023/11/23 04:34:10;;;;;;;;;;;;;;;6.78;100.00;100628.25;5023999;28;19936;-83
2023/11/23 04:36:43;;;;;;;;;;;;;;;6.83;100.00;100632.88;5031849;28;19925;-81
2023/11/23 04:39:16;;;;;;;;;;;;;;;6.89;100.00;100642.69;5033428;28;19937;-83
2023/11/23 04:41:43;;;;;;;;;;;;;;;6.88;100.00;100661.88;5034727;28;19925;-83
2023/11/23 04:44:13;;;;;;;;;;;;;;;6.90;100.00;100649.72;5027383;28;19933;-82
2023/11/23 04:46:46;;;;;;;;;;;;;;;6.91;100.00;100648.66;5021014;28;19936;-82
2023/11/23 04:49:13;;;;;;;;;;;;;;;6.90;100.00;100640.78;5031368;28;20397;-84
2023/11/23 04:51:41;;;;;;;;;;;;;;;6.92;100.00;100639.47;5031678;28;19925;-84
2023/11/23 04:54:14;;;;;;;;;;;;;;;7.00;100.00;100637.34;5022850;28;19936;-83
2023/11/23 04:56:50;;;;;;;;;;;;;;;7.03;100.00;100655.78;5018153;28;19925;-84
2023/11/23 04:59:24;;;;;;;;;;;;;;;7.06;100.00;100628.22;5022789;28;19933;-82
2023/11/23 05:01:52;;;;;;;;;;;;;;;7.11;100.00;100622.84;5030703;28;19976;-84
2023/11/23 05:04:20;;;;;;;;;;;;;;;7.07;100.00;100624.44;5027848;28;19925;-83
2023/11/23 05:06:55;;;;;;;;;;;;;;;7.17;100.00;100607.44;5030827;28;19933;-83
2023/11/23 05:09:28;;;;;;;;;;;;;;;7.19;100.00;100622.38;5027428;28;19926;-83
2023/11/23 05:12:01;;;;;;;;;;;;;;;7.15;100.00;100603.13;5024717;28;20004;-83
2023/11/23 05:14:30;;;;;;;;;;;;;;;7.20;100.00;100605.06;5031186;28;19932;-83
2023/11/23 05:16:58;;;;;;;;;;;;;;;7.19;100.00;100595.28;5033472;28;19924;-84
2023/11/23 05:19:31;;;;;;;;;;;;;;;7.26;100.00;100589.66;5030910;28;19925;-84
2023/11/23 05:22:04;;;;;;;;;;;;;;;7.27;100.00;100594.81;5030381;28;19929;-87
2023/11/23 05:24:37;;;;;;;;;;;;;;;7.30;100.00;100609.72;5024286;28;19929;-83
2023/11/23 05:27:06;;;;;;;;;;;;;;;7.28;100.00;100601.88;5025497;28;20390;-84
2023/11/23 05:29:40;;;;;;;;;;;;;;;7.28;100.00;100599.16;5026243;28;19932;-83
2023/11/23 05:32:13;;;;;;;;;;;;;;;7.33;100.00;100592.97;5026090;28;20381;-83
2023/11/23 05:34:41;;;;;;;;;;;;;;;7.33;100.00;100595.66;5030308;28;20315;-84
2023/11/23 05:37:09;;;;;;;;;;;;;;;7.38;100.00;100592.19;5026477;28;19925;-84
2023/11/23 05:39:37;;;;;;;;;;;;;;;7.37;100.00;100585.16;5027994;28;19931;-83
2023/11/23 05:42:10;;;;;;;;;;;;;;;7.38;100.00;100574.06;5029486;28;20374;-82
2023/11/23 05:44:44;;;;;;;;;;;;;;;7.40;100.00;100573.78;5029759;28;19932;-84
2023/11/23 05:47:12;;;;;;;;;;;;;;;7.41;100.00;100572.72;5027742;28;20337;-82
2023/11/23 05:49:40;;;;;;;;;;;;;;;7.42;100.00;100569.75;5033788;28;20504;-81
2023/11/23 05:52:13;;;;;;;;;;;;;;;7.44;100.00;100566.78;5028624;28;20297;-84
2023/11/23 05:54:41;;;;;;;;;;;;;;;7.47;100.00;100566.25;5029843;28;20448;-83
2023/11/23 05:57:14;;;;;;;;;;;;;;;7.52;100.00;100558.16;5029908;28;19944;-83
2023/11/23 05:59:42;;;;;;;;;;;;;;;7.48;100.00;100538.94;5030170;28;20412;-83
2023/11/23 06:02:16;;;;;;;;;;;;;;;7.59;100.00;100530.84;5026301;28;19933;-83
2023/11/23 06:04:45;;;;;;;;;;;;;;;7.60;100.00;100532.47;5022385;28;20396;-83
2023/11/23 06:07:17;;;;;;;;;;;;;;;7.56;100.00;100534.88;5023633;28;19996;-84
2023/11/23 06:09:45;;;;;;;;;;;;;;;7.61;100.00;100540.34;5025492;28;19929;-83
2023/11/23 06:12:18;;;;;;;;;;;;;;;7.58;100.00;100546.28;5027067;28;19932;-82
2023/11/23 06:14:51;;;;;;;;;;;;;;;7.62;100.00;100539.28;5030678;28;19925;-82
2023/11/23 06:17:25;;;;;;;;;;;;;;;7.62;100.00;100547.41;5027953;28;19926;-85
2023/11/23 06:19:53;;;;;;;;;;;;;;;7.72;100.00;100538.50;5025814;28;20374;-83
2023/11/23 06:22:21;;;;;;;;;;;;;;;7.70;100.00;100543.34;5020998;28;19940;-83
2023/11/23 06:24:54;;;;;;;;;;;;;;;7.74;100.00;100543.66;5028211;28;19926;-83
2023/11/23 06:27:28;;;;;;;;;;;;;;;7.78;100.00;100529.31;5025704;28;19930;-85
2023/11/23 06:30:01;;;;;;;;;;;;;;;7.77;100.00;100530.38;5026579;28;19931;-84
2023/11/23 06:32:36;;;;;;;;;;;;;;;7.84;100.00;100524.72;5021949;28;19940;-81
2023/11/23 06:35:04;;;;;;;;;;;;;;;7.85;100.00;100520.13;5021933;28;19993;-83
2023/11/23 06:37:32;;;;;;;;;;;;;;;7.94;100.00;100522.06;5044615;28;20301;-85
2023/11/23 06:40:06;;;;;;;;;;;;;;;7.95;100.00;100515.53;5025733;28;19925;-84
2023/11/23 06:42:38;;;;;;;;;;;;;;;7.98;100.00;100506.06;5030725;28;20431;-84
2023/11/23 06:45:07;;;;;;;;;;;;;;;8.08;100.00;100492.56;5028775;28;19925;-85
2023/11/23 06:47:41;;;;;;;;;;;;;;;8.07;100.00;100496.34;5028289;28;19932;-85
2023/11/23 06:50:10;;;;;;;;;;;;;;;8.05;100.00;100482.25;5033828;28;19925;-85
2023/11/23 06:52:38;;;;;;;;;;;;;;;8.12;100.00;100463.84;5031663;28;19933;-86
2023/11/23 06:55:06;;;;;;;;;;;;;;;8.14;100.00;100467.06;5032793;28;19932;-86
2023/11/23 06:57:39;;;;;;;;;;;;;;;8.18;100.00;100473.59;5027501;28;19925;-84
2023/11/23 07:00:21;;;;;;;;;;;;;;;8.21;100.00;100458.69;5029862;28;19929;-85
2023/11/23 07:02:51;;;;;;;;;;;;;;;8.29;100.00;100457.34;5024422;28;20281;-82
2023/11/23 07:05:19;;;;;;;;;;;;;;;8.28;100.00;100451.09;5042033;28;19936;-83
2023/11/23 07:07:48;;;;;;;;;;;;;;;8.32;100.00;100456.81;5030579;28;19936;-83
2023/11/23 07:10:17;;;;;;;;;;;;;;;8.34;100.00;100457.31;5033207;28;19932;-83
2023/11/23 07:12:45;;;;;;;;;;;;;;;8.36;100.00;100451.66;5027946;28;20373;-84
2023/11/23 07:15:18;;;;;;;;;;;;;;;8.39;100.00;100442.97;5028399;28;19937;-85
2023/11/23 07:17:47;;;;;;;;;;;;;;;8.45;100.00;100441.91;5028886;28;19929;-81
2023/11/23 07:20:22;;;;;;;;;;;;;;;8.46;100.00;100448.97;5038900;28;19936;-84
2023/11/23 07:22:50;;;;;;;;;;;;;;;8.44;100.00;100449.22;5026369;28;19925;-82
2023/11/23 07:25:23;;;;;;;;;;;;;;;8.46;100.00;100447.06;5023543;28;19926;-81
2023/11/23 07:27:55;;;;;;;;;;;;;;;8.42;100.00;100437.00;5027634;28;19931;-79
2023/11/23 07:30:28;;;;;;;;;;;;;;;8.46;100.00;100435.41;5027277;28;19937;-80
2023/11/23 07:32:56;;;;;;;;;;;;;;;8.52;100.00;100418.06;5030458;28;19925;-83
2023/11/23 07:35:31;;;;;;;;;;;;;;;8.48;100.00;100417.00;5027181;28;19925;-83
2023/11/23 07:37:59;;;;;;;;;;;;;;;8.51;100.00;100403.69;5030064;28;19925;-84
2023/11/23 07:40:34;;;;;;;;;;;;;;;8.57;100.00;100414.53;5033107;28;19925;-85
2023/11/23 07:43:03;;;;;;;;;;;;;;;8.56;100.00;100396.63;5027244;28;19925;-82
2023/11/23 07:45:31;;;;;;;;;;;;;;;8.55;100.00;100411.25;5031149;28;19930;-90
2023/11/23 07:48:08;;;;;;;;;;;;;;;8.59;100.00;100415.88;5028472;28;19925;-89
2023/11/23 07:50:43;;;;;;;;;;;;;;;8.66;100.00;100408.28;5029287;28;19933;-87
2023/11/23 07:53:11;;;;;;;;;;;;;;;8.72;100.00;100397.41;5035115;28;19925;-92
2023/11/23 07:55:39;;;;;;;;;;;;;;;8.72;100.00;100400.94;5031807;28;19933;-88
2023/11/23 07:58:07;;;;;;;;;;;;;;;8.71;100.00;100387.66;5031011;28;19932;-88
2023/11/23 08:00:37;;;;;;;;;;;;;;;8.73;100.00;100391.72;5026055;28;19933;-84
2023/11/23 08:03:05;;;;;;;;;;;;;;;8.73;100.00;100385.47;5023890;28;19925;-88
2023/11/23 08:05:38;;;;;;;;;;;;;;;8.73;100.00;100383.59;5027638;28;19929;-88
2023/11/23 08:08:10;;;;;;;;;;;;;;;8.72;100.00;100375.72;5029617;28;22745;-87
2023/11/23 08:10:39;;;;;;;;;;;;;;;8.74;100.00;100368.94;5042966;28;20425;-87
2023/11/23 08:13:14;;;;;;;;;;;;;;;8.76;100.00;100376.78;5028001;28;19929;-87
2023/11/23 08:15:44;;;;;;;;;;;;;;;8.74;100.00;100362.69;5026080;28;19925;-86
2023/11/23 08:18:12;;;;;;;;;;;;;;;8.78;100.00;100361.88;5018766;28;19934;-85
2023/11/23 08:20:45;;;;;;;;;;;;;;;8.78;100.00;100363.75;5025654;28;19925;-87
2023/11/23 08:23:19;;;;;;;;;;;;;;;8.82;100.00;100365.66;5021759;28;19929;-87
2023/11/23 08:25:48;;;;;;;;;;;;;;;8.84;100.00;100370.81;5031235;28;19932;-87
2023/11/23 08:28:17;;;;;;;;;;;;;;;8.89;100.00;100368.06;5026508;28;19933;-87
2023/11/23 08:30:46;;;;;;;;;;;;;;;8.87;100.00;100369.44;4983862;28;19956;-88
2023/11/23 08:33:20;;;;;;;;;;;;;;;8.95;100.00;100366.97;5022653;28;19952;-88
2023/11/23 08:35:48;;;;;;;;;;;;;;;8.94;100.00;100372.69;5014535;28;20491;-88
2023/11/23 08:38:16;;;;;;;;;;;;;;;8.85;100.00;100375.94;5016224;28;20602;-88
2023/11/23 08:40:46;;;;;;;;;;;;;;;8.94;100.00;100372.69;5016780;28;19933;-88
2023/11/23 08:43:14;;;;;;;;;;;;;;;8.92;100.00;100359.38;5016615;28;20012;-87
2023/11/23 08:45:42;;;;;;;;;;;;;;;8.93;100.00;100352.03;5014638;28;20366;-88
2023/11/23 08:48:10;;;;;;;;;;;;;;;8.92;100.00;100345.81;5021660;28;19933;-88
2023/11/23 08:50:40;;;;;;;;;;;;;;;8.90;100.00;100353.41;5017494;28;20297;-87
2023/11/23 08:53:08;;;;;;;;;;;;;;;8.98;100.00;100343.88;5025069;28;19940;-88
2023/11/23 08:55:36;;;;;;;;;;;;;;;8.92;100.00;100334.97;5015977;28;19944;-88
2023/11/23 08:58:11;;;;;;;;;;;;;;;8.96;100.00;100329.78;5014536;28;19940;-88
2023/11/23 09:00:39;;;;;;;;;;;;;;;9.02;100.00;100325.97;5026835;28;19929;-88
2023/11/23 09:03:09;;;;;;;;;;;;;;;8.97;100.00;100317.84;5023027;28;19933;-88
2023/11/23 09:05:36;;;;;;;;;;;;;;;9.03;100.00;100316.72;5017833;28;19957;-88
2023/11/23 09:08:06;;;;;;;;;;;;;;;9.04;100.00;100317.53;5012680;28;19940;-88
2023/11/23 09:10:34;;;;;;;;;;;;;;;9.01;100.00;100329.75;5015831;28;19943;-88
2023/11/23 09:13:02;;;;;;;;;;;;;;;9.02;100.00;100317.81;5016224;28;19925;-88
2023/11/23 09:15:37;;;;;;;;;;;;;;;9.09;100.00;100315.59;5014876;28;20604;-88
2023/11/23 09:18:06;;;;;;;;;;;;;;;9.11;100.00;100304.47;5011427;28;19933;-87
2023/11/23 09:20:39;;;;;;;;;;;;;;;9.12;100.00;100293.31;5015975;28;19932;-89
2023/11/23 09:23:07;;;;;;;;;;;;;;;9.12;100.00;100287.09;5012470;28;19940;-89
2023/11/23 09:25:35;;;;;;;;;;;;;;;9.15;100.00;100284.63;5016307;28;19925;-90
2023/11/23 09:28:10;;;;;;;;;;;;;;;9.16;100.00;100280.00;5015716;28;21580;-88
2023/11/23 09:30:44;;;;;;;;;;;;;;;9.17;100.00;100289.78;4987430;28;19929;-89
2023/11/23 09:33:12;;;;;;;;;;;;;;;9.25;100.00;100266.66;5019633;28;19940;-86
2023/11/23 09:35:45;;;;;;;;;;;;;;;9.24;100.00;100268.56;5016721;28;19932;-89
2023/11/23 09:38:13;;;;;;;;;;;;;;;9.24;100.00;100262.31;5014787;28;19925;-88
2023/11/23 09:40:41;;;;;;;;;;;;;;;9.26;100.00;100241.13;5008942;28;19940;-89
2023/11/23 09:43:10;;;;;;;;;;;;;;;9.25;100.00;100247.66;5021871;28;19933;-87
2023/11/23 09:45:45;;;;;;;;;;;;;;;9.29;100.00;100229.69;5012064;28;20305;-89
2023/11/23 09:48:15;;;;;;;;;;;;;;;9.26;100.00;100238.41;5016892;28;20400;-89
2023/11/23 09:50:52;;;;;;;;;;;;;;;9.28;100.00;100234.31;5014539;28;19933;-89
2023/11/23 10:01:42;;;;;;;;;;;;;;;9.33;100.00;100217.97;4819540;29;19930;-91
2023/11/23 10:04:34;;;;;;;;;;;;;;;9.31;100.00;100216.66;4833582;28;20480;-90
2023/11/23 10:11:02;;;;;;;;;;;;;;;9.33;100.00;100215.25;4945129;28;19925;-90
2023/11/23 10:13:30;;;;;;;;;;;;;;;9.38;100.00;100205.47;4917542;28;20941;-89
2023/11/23 10:16:04;;;;;;;;;;;;;;;9.40;100.00;100200.56;4917962;28;19934;-89
2023/11/23 10:18:37;;;;;;;;;;;;;;;9.37;100.00;100212.81;4951269;28;20527;-88
2023/11/23 10:21:18;;;;;;;;;;;;;;;9.34;100.00;100202.50;5020881;28;19940;-89
2023/11/23 10:23:53;;;;;;;;;;;;;;;9.32;100.00;100201.97;5021225;28;20649;-89
2023/11/23 10:26:42;;;;;;;;;;;;;;;9.34;100.00;100186.22;5026152;28;19933;-89
2023/11/23 10:29:14;;;;;;;;;;;;;;;9.33;100.00;100190.03;4991541;28;19948;-90
2023/11/23 10:31:42;;;;;;;;;;;;;;;9.35;100.00;100180.50;5024938;28;19933;-90
2023/11/23 10:34:11;;;;;;;;;;;;;;;9.37;100.00;100158.50;5003847;28;19956;-89
2023/11/23 10:36:41;;;;;;;;;;;;;;;9.35;100.00;100163.41;5023012;28;19929;-89
2023/11/23 10:39:11;;;;;;;;;;;;;;;9.43;100.00;100168.22;5008738;28;19933;-89
2023/11/23 10:41:40;;;;;;;;;;;;;;;9.41;100.00;100164.19;5011375;28;20556;-90
2023/11/23 10:44:08;;;;;;;;;;;;;;;9.37;100.00;100166.63;5006996;28;19933;-90
2023/11/23 10:46:38;;;;;;;;;;;;;;;9.41;100.00;100159.53;5006655;28;19944;-90
2023/11/23 10:49:06;;;;;;;;;;;;;;;9.45;100.00;100166.03;5006834;28;19940;-89
2023/11/23 10:51:35;;;;;;;;;;;;;;;9.42;100.00;100163.88;5011272;28;19933;-89
2023/11/23 10:54:05;;;;;;;;;;;;;;;9.43;100.00;100160.09;5024253;28;19933;-90
2023/11/23 10:56:40;;;;;;;;;;;;;;;9.47;100.00;100157.59;5007020;28;19925;-90
2023/11/23 10:59:11;;;;;;;;;;;;;;;9.53;100.00;100143.69;5009649;28;20464;-90
2023/11/23 11:01:40;;;;;;;;;;;;;;;9.52;100.00;100131.19;5008313;28;21085;-90
2023/11/23 11:04:08;;;;;;;;;;;;;;;9.56;100.00;100130.63;5013536;28;20725;-90
2023/11/23 11:06:40;;;;;;;;;;;;;;;9.53;100.00;100130.09;5008540;28;20309;-90
2023/11/23 11:09:15;;;;;;;;;;;;;;;9.60;100.00;100129.75;5010618;28;20693;-90
2023/11/23 11:11:44;;;;;;;;;;;;;;;9.58;100.00;100115.66;5005746;28;20670;-89
2023/11/23 11:14:16;;;;;;;;;;;;;;;9.60;100.00;100118.91;5010055;28;19933;-89
2023/11/23 11:16:44;;;;;;;;;;;;;;;9.60;100.00;100134.38;5001981;28;20325;-89
2023/11/23 11:19:13;;;;;;;;;;;;;;;9.60;100.00;100121.63;5009563;28;20433;-88
2023/11/23 11:21:43;;;;;;;;;;;;;;;9.62;100.00;100124.03;5008704;28;19933;-87
2023/11/23 11:24:20;;;;;;;;;;;;;;;9.63;100.00;100122.94;5011294;28;19937;-89
2023/11/23 11:27:01;;;;;;;;;;;;;;;9.68;100.00;100121.00;5005041;28;19925;-90
2023/11/23 11:29:33;;;;;;;;;;;;;;;9.73;100.00;100128.28;4985810;28;19940;-90
2023/11/23 11:32:03;;;;;;;;;;;;;;;9.72;100.00;100123.94;5007606;28;19929;-89
2023/11/23 11:34:34;;;;;;;;;;;;;;;9.71;100.00;100130.47;5005774;28;19933;-89
2023/11/23 11:37:03;;;;;;;;;;;;;;;9.75;100.00;100126.09;5003467;28;19980;-91
2023/11/23 11:39:32;;;;;;;;;;;;;;;9.76;100.00;100127.69;5006133;28;19930;-90
2023/11/23 11:42:03;;;;;;;;;;;;;;;9.78;100.00;100119.28;5006403;28;19936;-89
2023/11/23 11:44:42;;;;;;;;;;;;;;;9.82;100.00;100104.81;5012457;28;19925;-84
2023/11/23 11:47:15;;;;;;;;;;;;;;;9.78;100.00;100097.53;5010791;28;19933;-88
2023/11/23 11:49:45;;;;;;;;;;;;;;;9.76;100.00;100086.13;5009183;28;20376;-90
2023/11/23 11:52:13;;;;;;;;;;;;;;;9.75;100.00;100070.91;5013402;28;19940;-90
2023/11/23 11:54:43;;;;;;;;;;;;;;;9.78;100.00;100075.78;5007775;28;19933;-89
2023/11/23 11:57:11;;;;;;;;;;;;;;;9.77;100.00;100071.44;5012466;28;19933;-88
2023/11/23 11:59:39;;;;;;;;;;;;;;;9.79;100.00;100070.06;5005534;28;19945;-89
2023/11/23 12:02:07;;;;;;;;;;;;;;;9.73;100.00;100070.41;5004344;28;21484;-89
2023/11/23 12:04:35;;;;;;;;;;;;;;;9.73;100.00;100071.22;5008084;28;19944;-89
2023/11/23 12:07:12;;;;;;;;;;;;;;;9.69;100.00;100062.00;5007188;28;19968;-90
2023/11/23 12:09:40;;;;;;;;;;;;;;;9.71;100.00;100043.53;5005042;28;19937;-89
2023/11/23 12:12:11;;;;;;;;;;;;;;;9.73;100.00;100049.47;5005540;28;19971;-89
2023/11/23 12:14:45;;;;;;;;;;;;;;;9.69;100.00;100032.97;5006017;28;19940;-88
2023/11/23 12:17:13;;;;;;;;;;;;;;;9.73;100.00;100024.22;5011129;28;19944;-89
2023/11/23 12:19:50;;;;;;;;;;;;;;;9.70;100.00;100020.97;5008045;28;19940;-89
2023/11/23 12:22:23;;;;;;;;;;;;;;;9.74;100.00;100012.25;5009404;28;19929;-88
2023/11/23 12:24:52;;;;;;;;;;;;;;;9.73;100.00;100006.00;5013394;28;20389;-89
2023/11/23 12:27:21;;;;;;;;;;;;;;;9.72;100.00;99996.22;5003026;28;20009;-88
2023/11/23 12:29:49;;;;;;;;;;;;;;;9.73;100.00;99997.03;4982922;28;20308;-89
2023/11/23 12:32:22;;;;;;;;;;;;;;;9.69;100.00;99984.06;5014677;28;19957;-89
2023/11/23 12:34:50;;;;;;;;;;;;;;;9.71;100.00;99983.75;5004254;28;20282;-89
2023/11/23 12:37:18;;;;;;;;;;;;;;;9.69;100.00;99975.06;5008041;28;19943;-88
2023/11/23 12:39:48;;;;;;;;;;;;;;;9.70;100.00;99963.13;5007284;28;19933;-90
2023/11/23 12:42:17;;;;;;;;;;;;;;;9.72;100.00;99977.19;5019527;28;19945;-89
2023/11/23 12:44:46;;;;;;;;;;;;;;;9.77;100.00;99968.19;5007084;28;19933;-89
2023/11/23 12:47:14;;;;;;;;;;;;;;;9.72;100.00;99949.22;5005940;28;19933;-88
2023/11/23 12:49:42;;;;;;;;;;;;;;;9.72;100.00;99949.22;5007904;28;19933;-88
2023/11/23 12:52:10;;;;;;;;;;;;;;;9.69;100.00;99948.72;5005426;28;19940;-90
2023/11/23 12:54:38;;;;;;;;;;;;;;;9.71;100.00;99932.13;5007905;28;20404;-87
2023/11/23 12:57:09;;;;;;;;;;;;;;;9.71;100.00;99934.84;5003368;28;19940;-88
2023/11/23 12:59:37;;;;;;;;;;;;;;;9.69;100.00;99921.56;5005846;28;19933;-89
2023/11/23 13:02:08;;;;;;;;;;;;;;;9.65;100.00;99925.97;5007160;28;19940;-89
2023/11/23 13:04:41;;;;;;;;;;;;;;;9.66;100.00;99908.53;5008485;28;19933;-89
2023/11/23 13:07:14;;;;;;;;;;;;;;;9.70;100.00;99895.97;5000268;28;19944;-88
2023/11/23 13:09:48;;;;;;;;;;;;;;;9.71;100.00;99913.13;5001955;28;19933;-89